ADDS TAF Board (Experimental) INFO Settings
IDs: Format: Expanded Condensed

KDTW - Detroit Metro/Wayne, MI, US

Issued at 2106 UTC 01 Sep 2015
Updated at: 2219 UTC 01 Sep 2015
Time2153Z 01/23Z 02/00Z 02/01Z 02/02Z 02/03Z 02/04Z 02/05Z 02/06Z 02/07Z 02/08Z 02/09Z 02/10Z 02/11Z
Type OBS PRVL PRVL PRVL PRVL PRVL PRVL PRVL PRVL PRVL PRVL PRVL PRVL PRVL
VIS 10 >6 >6 >6 >6 >6 >6 4 4 4 2 2 2 2
CIG -- -- -- -- -- -- -- -- -- -- -- -- -- --
Cover SCT SCT SCT SCT SCT SCT SCT SCT SCT SCT SCT SCT SCT SCT
FltCat VFR VFR VFR VFR VFR VFR VFR MVFR MVFR MVFR IFR IFR IFR IFR
WX -- -- -- -- -- -- -- BR BR BR BR BR BR BR
WDir 220 210 200 200 200 200 200 210 210 210 210 210 210 210
WSpd 8 8 6 6 6 6 6 3 3 3 3 3 3 3
WGst -- -- -- -- -- -- -- -- -- -- -- -- -- --
R03/21
XWnd 2 0 -1 -1 -1 -1 -1 0 0 0 0 0 0 0
HWnd -8 -8 -6 -6 -6 -6 -6 -3 -3 -3 -3 -3 -3 -3
R04/22
XWnd 2 0 -1 -1 -1 -1 -1 0 0 0 0 0 0 0
HWnd -8 -8 -6 -6 -6 -6 -6 -3 -3 -3 -3 -3 -3 -3
R09/27
XWnd -6 -7 -6 -6 -6 -6 -6 -3 -3 -3 -3 -3 -3 -3
HWnd -5 -4 -2 -2 -2 -2 -2 -2 -2 -2 -2 -2 -2 -2

NOTE: TEMPO conditions in [brackets]. Keep in mind TEMPO conditions might be better (lower impact) than prevailing conditions.

Raw TAF
KDTW 012106Z 0121/0224 21008KT P6SM SCT045
  FM020000 20006KT P6SM SCT045
  FM020500 21003KT 4SM BR SCT003 SCT045
  FM020800 21003KT 2SM BR SCT001 SCT045
  FM021400 23005KT P6SM SCT035
  FM021700 22009KT P6SM BKN040


Raw METAR
KDTW 012153Z 22008KT 10SM FEW055 SCT250 31/19 A3003 RMK AO2 SLP165 T03110189
KDTW 012053Z 23008KT 10SM FEW050 SCT250 32/19 A3004 RMK AO2 SLP167 T03170189 56012
KDTW 011953Z 18011KT 10SM SCT050 SCT250 32/19 A3005 RMK AO2 SLP170 T03170194

METAR Board
Radar Display
Forecast Discussion

TAF Board Legend

Potential Impact
Threat None Slight Moderate High
Visibility (sm) ≥5.1 5.1>X≥3 3>X≥1 <1
Ceiling (100 ft) ≥30.1 30.1>X≥10 10>X≥5 <5
Wind Speed (kt) <10 10≤X<20 20≤X<30 ≥30
Wind Gust (kt) <15 15≤X<25 25≤X<35 ≥35
Weather No Wx Reported VCTS,-TS,-FZRA,SN TS,FZRA +TS,+FZRA,+SN